Dades meteomassalio
Diari Summary for Gener 9, 2017 Units:  Metric    English   Both
« Previous Day
Next Day »
Diari Semanal Mensual Anual Personalitzat
  Maxima: Minima: Mijana:
Temperatura: 12.1 °C 4.1 °C 7.2 °C
Rosada: 3.7 °C 1.4 °C 2.5 °C
Humitat: 83 % 53 % 73 %
Velocitat del vent: 18.5 km/h 0.0 km/h 0.4 km/h
Racha vent: 18.5 km/h - -
Vent:- - ENE
Pressio: 1029.7 hPa 1023.6 hPa -
Pluja: 0.0 mm    
Historical Graphs
 
 
Tabular Data for Gener 9, 2017
Time Temperature Dew Point Pressure Wind Wind Speed Wind Gust Humidity Rainfall Rate (Hourly) solar Conditions
00:01 6.7 °C 3.2 °C 1028.7 hPa Calm     78 % 0.0 mm 0.0 W/m2 CLR
00:06 6.7 °C 3.1 °C 1028.7 hPa Calm     78 % 0.0 mm 0.0 W/m2 CLR
00:11 6.6 °C 3.0 °C 1028.7 hPa Calm     78 % 0.0 mm 0.0 W/m2 CLR
00:16 6.5 °C 3.1 °C 1028.7 hPa Calm     79 % 0.0 mm 0.0 W/m2 CLR
00:21 6.4 °C 3.1 °C 1028.7 hPa Calm     79 % 0.0 mm 0.0 W/m2 CLR
00:26 6.3 °C 2.9 °C 1028.7 hPa Calm     79 % 0.0 mm 0.0 W/m2 CLR
00:31 6.2 °C 2.8 °C 1028.7 hPa Calm     79 % 0.0 mm 0.0 W/m2 CLR
00:36 6.2 °C 3.0 °C 1028.7 hPa Calm     80 % 0.0 mm 0.0 W/m2 CLR
00:41 6.3 °C 3.1 °C 1028.7 hPa Calm     80 % 0.0 mm 0.0 W/m2 CLR
00:46 6.2 °C 3.0 °C 1028.7 hPa Calm     80 % 0.0 mm 0.0 W/m2 CLR
00:51 6.3 °C 3.1 °C 1028.7 hPa Calm     80 % 0.0 mm 0.0 W/m2 CLR
00:56 6.3 °C 3.1 °C 1028.7 hPa Calm     80 % 0.0 mm 0.0 W/m2 CLR
01:01 6.3 °C 3.1 °C 1028.7 hPa Calm     80 % 0.0 mm 0.0 W/m2 CLR
01:06 6.2 °C 3.0 °C 1028.7 hPa Calm     80 % 0.0 mm 0.0 W/m2 CLR
01:11 6.2 °C 3.0 °C 1028.7 hPa Calm     80 % 0.0 mm 0.0 W/m2 CLR
01:16 6.3 °C 3.1 °C 1028.7 hPa Calm     80 % 0.0 mm 0.0 W/m2 CLR
01:21 6.2 °C 3.0 °C 1028.7 hPa Calm     80 % 0.0 mm 0.0 W/m2 CLR
01:31 6.3 °C 3.1 °C 1028.7 hPa Calm     80 % 0.0 mm 0.0 W/m2 CLR
01:36 6.3 °C 3.1 °C 1028.7 hPa Calm     80 % 0.0 mm 0.0 W/m2 CLR
01:41 6.3 °C 3.1 °C 1028.7 hPa Calm     80 % 0.0 mm 0.0 W/m2 CLR
01:46 6.2 °C 2.8 °C 1028.7 hPa Calm     79 % 0.0 mm 0.0 W/m2 CLR
01:51 6.2 °C 2.9 °C 1028.7 hPa Calm     80 % 0.0 mm 0.0 W/m2 CLR
01:56 6.2 °C 2.9 °C 1028.7 hPa Calm     80 % 0.0 mm 0.0 W/m2 CLR
02:01 6.2 °C 3.0 °C 1028.7 hPa Calm     80 % 0.0 mm 0.0 W/m2 CLR
02:06 6.2 °C 3.0 °C 1028.7 hPa Calm     80 % 0.0 mm 0.0 W/m2 CLR
02:11 6.2 °C 3.0 °C 1028.7 hPa Calm     80 % 0.0 mm 0.0 W/m2 CLR
02:16 6.1 °C 2.7 °C 1028.7 hPa Calm     79 % 0.0 mm 0.0 W/m2 CLR
02:22 6.1 °C 2.7 °C 1028.7 hPa Calm     79 % 0.0 mm 0.0 W/m2 CLR
02:27 5.9 °C 2.7 °C 1028.7 hPa Calm     80 % 0.0 mm 0.0 W/m2 CLR
02:37 5.9 °C 2.7 °C 1028.7 hPa Calm     80 % 0.0 mm 0.0 W/m2 CLR
02:42 5.9 °C 2.7 °C 1028.7 hPa Calm     80 % 0.0 mm 0.0 W/m2 CLR
02:47 5.9 °C 2.8 °C 1029.0 hPa Calm     80 % 0.0 mm 0.0 W/m2 CLR
02:52 5.9 °C 2.7 °C 1029.0 hPa Calm     80 % 0.0 mm 0.0 W/m2 CLR
02:57 6.0 °C 2.8 °C 1029.0 hPa Calm     80 % 0.0 mm 0.0 W/m2 CLR
03:02 5.9 °C 2.7 °C 1029.0 hPa Calm     80 % 0.0 mm 0.0 W/m2 CLR
03:07 5.8 °C 2.7 °C 1029.0 hPa Calm     80 % 0.0 mm 0.0 W/m2 CLR
03:12 5.8 °C 2.7 °C 1029.0 hPa Calm     80 % 0.0 mm 0.0 W/m2 CLR
03:17 5.8 °C 2.7 °C 1029.0 hPa Calm     80 % 0.0 mm 0.0 W/m2 CLR
03:22 5.8 °C 2.6 °C 1029.0 hPa Calm     80 % 0.0 mm 0.0 W/m2 CLR
03:27 5.8 °C 2.6 °C 1029.0 hPa Calm     80 % 0.0 mm 0.0 W/m2 CLR
03:32 5.7 °C 2.6 °C 1029.0 hPa Calm     80 % 0.0 mm 0.0 W/m2 CLR
03:37 5.8 °C 2.6 °C 1029.0 hPa Calm     80 % 0.0 mm 0.0 W/m2 CLR
03:42 5.7 °C 2.6 °C 1029.0 hPa Calm     80 % 0.0 mm 0.0 W/m2 CLR
03:47 5.8 °C 2.6 °C 1029.0 hPa Calm     80 % 0.0 mm 0.0 W/m2 CLR
03:52 5.7 °C 2.6 °C 1029.0 hPa Calm     80 % 0.0 mm 0.0 W/m2 CLR
03:57 5.7 °C 2.5 °C 1029.0 hPa Calm     80 % 0.0 mm 0.0 W/m2 CLR
04:02 5.7 °C 2.6 °C 1029.0 hPa Calm     80 % 0.0 mm 0.0 W/m2 CLR
04:07 5.7 °C 2.6 °C 1029.0 hPa Calm     80 % 0.0 mm 0.0 W/m2 CLR
04:12 5.8 °C 2.6 °C 1029.0 hPa Calm     80 % 0.0 mm 0.0 W/m2 CLR
04:17 5.8 °C 2.7 °C 1029.0 hPa Calm     80 % 0.0 mm 0.0 W/m2 CLR
04:22 5.8 °C 2.7 °C 1029.0 hPa Calm     80 % 0.0 mm 0.0 W/m2 CLR
04:27 5.8 °C 2.4 °C 1029.0 hPa Calm     79 % 0.0 mm 0.0 W/m2 CLR
04:32 5.7 °C 2.4 °C 1029.0 hPa Calm     79 % 0.0 mm 0.0 W/m2 CLR
04:37 5.6 °C 2.3 °C 1029.0 hPa Calm     79 % 0.0 mm 0.0 W/m2 CLR
04:42 5.4 °C 2.2 °C 1029.0 hPa Calm     80 % 0.0 mm 0.0 W/m2 CLR
04:47 5.4 °C 2.4 °C 1029.0 hPa Calm     81 % 0.0 mm 0.0 W/m2 CLR
04:52 5.2 °C 2.1 °C 1029.0 hPa Calm     80 % 0.0 mm 0.0 W/m2 CLR
04:57 5.3 °C 2.3 °C 1029.0 hPa Calm     81 % 0.0 mm 0.0 W/m2 CLR
05:02 5.4 °C 2.3 °C 1029.0 hPa Calm     80 % 0.0 mm 0.0 W/m2 CLR
05:07 5.4 °C 2.2 °C 1029.0 hPa Calm     80 % 0.0 mm 0.0 W/m2 CLR
05:12 5.4 °C 2.4 °C 1029.0 hPa Calm     81 % 0.0 mm 0.0 W/m2 CLR
05:17 5.3 °C 2.1 °C 1028.7 hPa Calm     80 % 0.0 mm 0.0 W/m2 CLR
05:22 5.1 °C 2.1 °C 1028.7 hPa Calm     81 % 0.0 mm 0.0 W/m2 CLR
05:27 5.1 °C 2.1 °C 1028.7 hPa Calm     81 % 0.0 mm 0.0 W/m2 CLR
05:32 5.2 °C 2.2 °C 1028.7 hPa Calm     81 % 0.0 mm 0.0 W/m2 CLR
05:37 5.2 °C 2.2 °C 1028.7 hPa Calm     81 % 0.0 mm 0.0 W/m2 CLR
05:42 5.2 °C 2.2 °C 1028.7 hPa Calm     81 % 0.0 mm 0.0 W/m2 CLR
05:47 5.2 °C 2.2 °C 1028.7 hPa Calm     81 % 0.0 mm 0.0 W/m2 CLR
05:52 5.2 °C 2.2 °C 1028.7 hPa Calm     81 % 0.0 mm 0.0 W/m2 CLR
05:57 5.2 °C 2.2 °C 1028.7 hPa Calm     81 % 0.0 mm 0.0 W/m2 CLR
06:02 5.2 °C 2.2 °C 1028.7 hPa Calm     81 % 0.0 mm 0.0 W/m2 CLR
06:07 5.1 °C 1.9 °C 1028.7 hPa Calm     80 % 0.0 mm 0.0 W/m2 CLR
06:12 5.0 °C 1.8 °C 1028.7 hPa Calm     80 % 0.0 mm 0.0 W/m2 CLR
06:22 5.0 °C 2.0 °C 1028.7 hPa Calm     81 % 0.0 mm 0.0 W/m2 CLR
06:27 5.1 °C 2.1 °C 1028.7 hPa Calm     81 % 0.0 mm 0.0 W/m2 CLR
06:32 5.1 °C 1.9 °C 1028.7 hPa Calm     80 % 0.0 mm 0.0 W/m2 CLR
06:37 5.0 °C 1.8 °C 1028.7 hPa Calm     80 % 0.0 mm 0.0 W/m2 CLR
06:42 4.9 °C 1.9 °C 1028.7 hPa Calm     81 % 0.0 mm 0.0 W/m2 CLR
06:47 4.9 °C 1.9 °C 1028.7 hPa Calm     81 % 0.0 mm 0.0 W/m2 CLR
06:52 4.8 °C 1.8 °C 1028.7 hPa Calm     81 % 0.0 mm 0.0 W/m2 CLR
06:57 4.7 °C 1.7 °C 1028.7 hPa Calm     81 % 0.0 mm 0.0 W/m2 CLR
07:02 4.6 °C 1.6 °C 1028.7 hPa Calm     81 % 0.0 mm 0.0 W/m2 CLR
07:07 4.6 °C 1.7 °C 1028.7 hPa Calm     82 % 0.0 mm 0.0 W/m2 CLR
07:12 4.6 °C 1.7 °C 1029.0 hPa Calm     82 % 0.0 mm 0.0 W/m2 CLR
07:22 4.6 °C 1.8 °C 1029.0 hPa Calm     82 % 0.0 mm 0.0 W/m2 CLR
07:27 4.6 °C 1.8 °C 1029.0 hPa Calm     82 % 0.0 mm 0.0 W/m2 CLR
07:32 4.5 °C 1.7 °C 1029.0 hPa Calm     82 % 0.0 mm 0.0 W/m2 CLR
07:38 4.4 °C 1.6 °C 1029.3 hPa Calm     82 % 0.0 mm 0.0 W/m2 CLR
07:43 4.4 °C 1.6 °C 1029.3 hPa Calm     82 % 0.0 mm 0.0 W/m2 CLR
07:48 4.4 °C 1.6 °C 1029.3 hPa Calm     82 % 0.0 mm 0.0 W/m2 CLR
07:53 4.6 °C 1.7 °C 1029.3 hPa Calm     82 % 0.0 mm 0.0 W/m2 CLR
07:58 4.5 °C 1.7 °C 1029.0 hPa Calm     82 % 0.0 mm 0.0 W/m2 CLR
08:03 4.4 °C 1.6 °C 1029.3 hPa Calm     82 % 0.0 mm 0.0 W/m2 CLR
08:08 4.2 °C 1.4 °C 1029.3 hPa Calm     82 % 0.0 mm 0.0 W/m2 CLR
08:13 4.1 °C 1.5 °C 1029.3 hPa Calm     83 % 0.0 mm 0.0 W/m2 CLR
08:18 4.1 °C 1.5 °C 1029.3 hPa Calm     83 % 0.0 mm 0.0 W/m2 CLR
08:23 4.1 °C 1.5 °C 1029.3 hPa Calm     83 % 0.0 mm 0.0 W/m2 CLR
08:28 4.2 °C 1.6 °C 1029.3 hPa Calm     83 % 0.0 mm 5.0 W/m2 BKN
08:33 4.3 °C 1.6 °C 1029.3 hPa Calm     82 % 0.0 mm 9.0 W/m2 BKN
08:38 4.3 °C 1.5 °C 1029.3 hPa Calm     82 % 0.0 mm 11.0 W/m2 BKN
08:43 4.3 °C 1.5 °C 1029.3 hPa Calm     82 % 0.0 mm 12.0 W/m2 BKN
08:44 4.3 °C 1.5 °C 1029.3 hPa Calm     82 % 0.0 mm 12.0 W/m2 BKN
08:49 4.3 °C 1.7 °C 1029.3 hPa Calm     83 % 0.0 mm 14.0 W/m2 BKN
08:54 4.4 °C 1.6 °C 1029.3 hPa Calm     82 % 0.0 mm 16.0 W/m2 BKN
08:59 4.5 °C 1.7 °C 1029.3 hPa Calm     82 % 0.0 mm 21.0 W/m2 BKN
09:04 4.6 °C 1.7 °C 1029.3 hPa Calm     82 % 0.0 mm 30.0 W/m2 BKN
09:09 4.7 °C 1.9 °C 1029.3 hPa Calm     82 % 0.0 mm 42.0 W/m2 BKN
09:14 4.9 °C 1.9 °C 1029.3 hPa Calm     81 % 0.0 mm 51.0 W/m2 BKN
09:19 5.0 °C 2.0 °C 1029.3 hPa Calm     81 % 0.0 mm 62.0 W/m2 BKN
09:24 5.2 °C 2.0 °C 1029.3 hPa Calm     80 % 0.0 mm 72.0 W/m2 BKN
09:29 5.3 °C 2.2 °C 1029.3 hPa Calm     80 % 0.0 mm 81.0 W/m2 BKN
09:34 5.5 °C 2.3 °C 1029.3 hPa Calm     80 % 0.0 mm 84.0 W/m2 BKN
09:39 5.7 °C 2.3 °C 1029.3 hPa Calm     79 % 0.0 mm 113.0 W/m2 BKN
09:45 6.0 °C 2.4 °C 1029.3 hPa Calm     78 % 0.0 mm 127.0 W/m2 BKN
09:50 6.3 °C 2.6 °C 1029.7 hPa Calm     77 % 0.0 mm 141.0 W/m2 BKN
09:55 6.6 °C 2.6 °C 1029.7 hPa Calm     76 % 0.0 mm 156.0 W/m2 BKN
10:00 6.8 °C 2.7 °C 1029.3 hPa Calm     75 % 0.0 mm 171.0 W/m2 BKN
10:05 7.0 °C 2.7 °C 1029.3 hPa Calm     74 % 0.0 mm 167.0 W/m2 SCT
10:10 7.1 °C 2.8 °C 1029.7 hPa Calm     74 % 0.0 mm 199.0 W/m2 SCT
10:15 7.3 °C 2.8 °C 1029.3 hPa Calm     73 % 0.0 mm 144.0 W/m2 SCT
10:20 7.4 °C 2.9 °C 1029.3 hPa Calm     73 % 0.0 mm 229.0 W/m2 SCT
10:25 7.4 °C 2.7 °C 1029.3 hPa Calm     72 % 0.0 mm 243.0 W/m2 SCT
10:30 7.6 °C 2.8 °C 1029.3 hPa Calm     72 % 0.0 mm 255.0 W/m2 SCT
10:35 7.7 °C 3.0 °C 1029.3 hPa Calm     72 % 0.0 mm 265.0 W/m2 SCT
10:40 7.8 °C 2.9 °C 1029.3 hPa Calm     71 % 0.0 mm 276.0 W/m2 SCT
10:45 7.9 °C 3.0 °C 1029.3 hPa Calm     71 % 0.0 mm 288.0 W/m2 SCT
10:50 7.9 °C 3.0 °C 1029.3 hPa Calm     71 % 0.0 mm 297.0 W/m2 SCT
10:55 8.1 °C 3.1 °C 1029.3 hPa Calm     71 % 0.0 mm 308.0 W/m2 FEW
11:05 8.2 °C 3.0 °C 1029.3 hPa Calm     70 % 0.0 mm 327.0 W/m2 FEW
11:10 8.2 °C 2.9 °C 1029.3 hPa Calm     69 % 0.0 mm 336.0 W/m2 FEW
11:15 8.2 °C 2.9 °C 1029.3 hPa Calm     69 % 0.0 mm 343.0 W/m2 FEW
11:20 8.4 °C 3.0 °C 1029.3 hPa Calm     69 % 0.0 mm 350.0 W/m2 FEW
11:25 8.5 °C 2.9 °C 1029.0 hPa Calm     68 % 0.0 mm 359.0 W/m2 FEW
11:30 8.6 °C 3.1 °C 1029.0 hPa Calm     68 % 0.0 mm 366.0 W/m2 FEW
11:35 8.7 °C 3.1 °C 1029.0 hPa Calm     68 % 0.0 mm 373.0 W/m2 FEW
11:40 8.8 °C 2.8 °C 1029.0 hPa Calm     66 % 0.0 mm 380.0 W/m2 FEW
11:45 8.8 °C 2.8 °C 1029.0 hPa Calm     66 % 0.0 mm 385.0 W/m2 FEW
11:50 8.9 °C 3.3 °C 1029.0 hPa Calm     68 % 0.0 mm 394.0 W/m2 FEW
11:55 8.9 °C 3.2 °C 1028.7 hPa Calm     67 % 0.0 mm 399.0 W/m2 FEW
12:00 8.9 °C 2.9 °C 1028.7 hPa Calm     66 % 0.0 mm 403.0 W/m2 FEW
12:05 9.1 °C 3.3 °C 1028.7 hPa Calm     67 % 0.0 mm 408.0 W/m2 FEW
12:10 9.2 °C 2.9 °C 1028.3 hPa Calm     65 % 0.0 mm 413.0 W/m2 FEW
12:20 9.3 °C 3.4 °C 1028.3 hPa Calm     67 % 0.0 mm 422.0 W/m2 CLR
12:26 9.5 °C 3.4 °C 1028.3 hPa Calm     66 % 0.0 mm 425.0 W/m2 CLR
12:31 9.6 °C 3.3 °C 1028.0 hPa Calm     65 % 0.0 mm 429.0 W/m2 CLR
12:36 9.6 °C 3.3 °C 1028.0 hPa Calm     65 % 0.0 mm 432.0 W/m2 CLR
12:41 9.6 °C 3.3 °C 1028.0 hPa Calm     65 % 0.0 mm 434.0 W/m2 CLR
12:46 9.9 °C 3.4 °C 1027.7 hPa Calm     64 % 0.0 mm 438.0 W/m2 CLR
12:51 9.9 °C 3.4 °C 1027.7 hPa Calm     64 % 0.0 mm 438.0 W/m2 CLR
12:56 9.9 °C 3.4 °C 1027.7 hPa Calm     64 % 0.0 mm 439.0 W/m2 CLR
13:01 9.9 °C 2.9 °C 1027.7 hPa Calm     62 % 0.0 mm 439.0 W/m2 CLR
13:06 9.9 °C 2.9 °C 1027.3 hPa Calm     62 % 0.0 mm 441.0 W/m2 CLR
13:11 9.8 °C 3.1 °C 1027.3 hPa Calm     63 % 0.0 mm 441.0 W/m2 CLR
13:16 10.1 °C 3.6 °C 1027.0 hPa Calm     64 % 0.0 mm 441.0 W/m2 CLR
13:21 10.2 °C 3.5 °C 1027.0 hPa Calm     63 % 0.0 mm 441.0 W/m2 CLR
13:26 10.4 °C 3.2 °C 1026.6 hPa Calm     61 % 0.0 mm 439.0 W/m2 CLR
13:31 10.6 °C 3.6 °C 1026.6 hPa Calm     62 % 0.0 mm 438.0 W/m2 CLR
13:36 10.6 °C 3.4 °C 1027.0 hPa Calm     61 % 0.0 mm 438.0 W/m2 CLR
13:41 10.6 °C 3.6 °C 1026.6 hPa Calm     62 % 0.0 mm 436.0 W/m2 CLR
13:46 10.6 °C 3.2 °C 1026.3 hPa Calm     60 % 0.0 mm 434.0 W/m2 CLR
13:51 10.7 °C 3.3 °C 1026.6 hPa Calm     60 % 0.0 mm 431.0 W/m2 CLR
13:56 10.8 °C 3.1 °C 1026.3 hPa Calm     59 % 0.0 mm 427.0 W/m2 CLR
14:01 10.8 °C 3.3 °C 1026.3 hPa Calm     60 % 0.0 mm 424.0 W/m2 CLR
14:06 10.9 °C 3.7 °C 1026.3 hPa Calm     61 % 0.0 mm 420.0 W/m2 CLR
14:11 10.8 °C 3.4 °C 1026.0 hPa Calm     60 % 0.0 mm 415.0 W/m2 CLR
14:16 10.9 °C 3.2 °C 1026.0 hPa Calm     59 % 0.0 mm 410.0 W/m2 CLR
14:21 11.1 °C 3.2 °C 1026.0 hPa Calm     58 % 0.0 mm 404.0 W/m2 CLR
14:26 11.2 °C 3.3 °C 1026.0 hPa Calm     58 % 0.0 mm 399.0 W/m2 CLR
14:31 11.3 °C 3.3 °C 1025.6 hPa Calm     58 % 0.0 mm 394.0 W/m2 CLR
14:36 11.4 °C 3.2 °C 1025.6 hPa Calm     57 % 0.0 mm 388.0 W/m2 CLR
14:41 11.6 °C 3.3 °C 1025.6 hPa Calm     57 % 0.0 mm 383.0 W/m2 CLR
14:46 11.6 °C 3.1 °C 1025.3 hPa Calm     56 % 0.0 mm 374.0 W/m2 CLR
14:51 11.6 °C 3.3 °C 1025.3 hPa Calm     57 % 0.0 mm 369.0 W/m2 CLR
14:56 11.6 °C 3.3 °C 1025.3 hPa Calm     57 % 0.0 mm 362.0 W/m2 CLR
15:01 11.5 °C 3.0 °C 1025.3 hPa Calm     56 % 0.0 mm 353.0 W/m2 CLR
15:06 11.7 °C 3.5 °C 1025.3 hPa Calm     57 % 0.0 mm 343.0 W/m2 CLR
15:11 11.7 °C 3.2 °C 1025.3 hPa Calm     56 % 0.0 mm 336.0 W/m2 CLR
15:21 11.6 °C 3.3 °C 1024.9 hPa Calm     57 % 0.0 mm 316.0 W/m2 CLR
15:26 11.5 °C 3.3 °C 1024.9 hPa Calm     57 % 0.0 mm 308.0 W/m2 CLR
15:31 11.7 °C 3.2 °C 1024.9 hPa Calm     56 % 0.0 mm 297.0 W/m2 CLR
15:36 11.9 °C 3.4 °C 1024.9 hPa Calm     56 % 0.0 mm 287.0 W/m2 CLR
15:41 11.8 °C 3.3 °C 1024.9 hPa Calm     56 % 0.0 mm 274.0 W/m2 CLR
15:46 11.7 °C 3.5 °C 1024.9 hPa Calm     57 % 0.0 mm 264.0 W/m2 CLR
15:56 12.1 °C 3.3 °C 1024.9 hPa Calm     55 % 0.0 mm 239.0 W/m2 CLR
16:01 12.0 °C 2.9 °C 1024.9 hPa Calm     54 % 0.0 mm 223.0 W/m2 CLR
16:06 12.0 °C 2.7 °C 1024.6 hPa Calm     53 % 0.0 mm 211.0 W/m2 CLR
16:12 11.9 °C 3.4 °C 1024.6 hPa Calm     56 % 0.0 mm 197.0 W/m2 CLR
16:17 11.8 °C 3.3 °C 1024.6 hPa Calm     56 % 0.0 mm 183.0 W/m2 CLR
16:22 11.7 °C 3.5 °C 1024.6 hPa Calm     57 % 0.0 mm 169.0 W/m2 CLR
16:27 11.8 °C 3.3 °C 1024.6 hPa Calm     56 % 0.0 mm 153.0 W/m2 CLR
16:32 11.8 °C 3.6 °C 1024.6 hPa Calm     57 % 0.0 mm 139.0 W/m2 CLR
16:37 11.7 °C 3.5 °C 1024.6 hPa Calm     57 % 0.0 mm 125.0 W/m2 CLR
16:42 11.6 °C 3.3 °C 1024.6 hPa Calm     57 % 0.0 mm 113.0 W/m2 CLR
16:52 11.4 °C 3.4 °C 1024.6 hPa Calm     58 % 0.0 mm 84.0 W/m2 CLR
16:57 11.4 °C 3.4 °C 1024.3 hPa Calm     58 % 0.0 mm 62.0 W/m2 CLR
17:02 11.3 °C 3.3 °C 1024.6 hPa Calm     58 % 0.0 mm 46.0 W/m2 CLR
17:07 11.3 °C 3.6 °C 1024.6 hPa Calm     59 % 0.0 mm 46.0 W/m2 OVC
17:12 11.1 °C 3.4 °C 1024.6 hPa Calm     59 % 0.0 mm 35.0 W/m2 OVC
17:17 11.0 °C 3.3 °C 1024.6 hPa Calm     59 % 0.0 mm 26.0 W/m2 OVC
17:22 10.8 °C 3.1 °C 1024.6 hPa Calm     59 % 0.0 mm 19.0 W/m2 OVC
17:27 10.6 °C 3.2 °C 1024.6 hPa Calm     60 % 0.0 mm 12.0 W/m2 OVC
17:32 10.3 °C 3.1 °C 1024.6 hPa Calm     61 % 0.0 mm 12.0 W/m2 OVC
17:37 10.1 °C 2.9 °C 1024.6 hPa Calm     61 % 0.0 mm 11.0 W/m2 OVC
17:42 9.9 °C 2.8 °C 1024.6 hPa Calm     61 % 0.0 mm 9.0 W/m2 OVC
17:47 9.8 °C 2.9 °C 1024.6 hPa Calm     62 % 0.0 mm 5.0 W/m2 OVC
17:52 9.4 °C 2.7 °C 1024.6 hPa Calm     63 % 0.0 mm 0.0 W/m2 CLR
17:57 9.2 °C 2.6 °C 1024.6 hPa Calm     63 % 0.0 mm 0.0 W/m2 CLR
18:02 8.9 °C 2.7 °C 1024.6 hPa Calm     65 % 0.0 mm 0.0 W/m2 CLR
18:07 8.7 °C 2.7 °C 1024.6 hPa Calm     66 % 0.0 mm 0.0 W/m2 CLR
18:12 8.5 °C 2.5 °C 1024.6 hPa Calm     66 % 0.0 mm 0.0 W/m2 CLR
18:17 8.4 °C 2.6 °C 1024.6 hPa Calm     67 % 0.0 mm 0.0 W/m2 CLR
18:22 8.2 °C 2.4 °C 1024.6 hPa Calm     67 % 0.0 mm 0.0 W/m2 CLR
18:27 8.3 °C 2.6 °C 1024.6 hPa Calm     67 % 0.0 mm 0.0 W/m2 CLR
18:32 8.1 °C 2.5 °C 1024.6 hPa Calm     68 % 0.0 mm 0.0 W/m2 CLR
18:37 7.8 °C 2.3 °C 1024.6 hPa Calm     68 % 0.0 mm 0.0 W/m2 CLR
18:42 7.6 °C 2.2 °C 1024.6 hPa Calm     69 % 0.0 mm 0.0 W/m2 CLR
18:47 7.2 °C 2.1 °C 1024.6 hPa Calm     70 % 0.0 mm 0.0 W/m2 CLR
18:52 6.9 °C 2.0 °C 1024.6 hPa Calm     71 % 0.0 mm 0.0 W/m2 CLR
18:57 6.5 °C 1.8 °C 1024.6 hPa Calm     72 % 0.0 mm 0.0 W/m2 CLR
19:02 6.2 °C 1.7 °C 1024.6 hPa Calm     73 % 0.0 mm 0.0 W/m2 CLR
19:12 5.6 °C 1.5 °C 1024.6 hPa Calm     75 % 0.0 mm 0.0 W/m2 CLR
19:17 5.8 °C 2.3 °C 1024.6 hPa Calm     78 % 0.0 mm 0.0 W/m2 CLR
19:22 6.2 °C 2.1 °C 1024.9 hPa Calm     75 % 0.0 mm 0.0 W/m2 CLR
19:27 6.4 °C 2.3 °C 1024.9 hPa Calm     75 % 0.0 mm 0.0 W/m2 CLR
19:32 6.3 °C 2.0 °C 1024.9 hPa Calm     74 % 0.0 mm 0.0 W/m2 CLR
19:37 6.0 °C 1.7 °C 1024.6 hPa Calm     74 % 0.0 mm 0.0 W/m2 CLR
19:42 5.7 °C 1.6 °C 1024.6 hPa Calm     75 % 0.0 mm 0.0 W/m2 CLR
19:47 5.6 °C 1.7 °C 1024.6 hPa Calm     76 % 0.0 mm 0.0 W/m2 CLR
19:52 5.5 °C 1.8 °C 1024.6 hPa Calm     77 % 0.0 mm 0.0 W/m2 CLR
19:57 5.5 °C 1.9 °C 1024.9 hPa Calm     78 % 0.0 mm 0.0 W/m2 CLR
20:02 5.5 °C 1.8 °C 1024.6 hPa Calm     77 % 0.0 mm 0.0 W/m2 CLR
20:07 5.3 °C 1.6 °C 1024.9 hPa Calm     77 % 0.0 mm 0.0 W/m2 CLR
20:12 5.2 °C 1.7 °C 1024.9 hPa Calm     78 % 0.0 mm 0.0 W/m2 CLR
20:17 5.1 °C 1.8 °C 1024.9 hPa Calm     79 % 0.0 mm 0.0 W/m2 CLR
20:22 5.2 °C 1.7 °C 1024.6 hPa Calm     78 % 0.0 mm 0.0 W/m2 CLR
20:27 5.3 °C 1.8 °C 1024.9 hPa Calm     78 % 0.0 mm 0.0 W/m2 CLR
20:32 5.4 °C 1.7 °C 1024.9 hPa Calm     77 % 0.0 mm 0.0 W/m2 CLR
20:37 5.6 °C 1.9 °C 1024.6 hPa Calm     77 % 0.0 mm 0.0 W/m2 CLR
20:42 5.7 °C 1.9 °C 1024.6 hPa Calm     77 % 0.0 mm 0.0 W/m2 CLR
20:47 5.9 °C 2.0 °C 1024.6 hPa Calm     76 % 0.0 mm 0.0 W/m2 CLR
20:52 6.1 °C 2.0 °C 1024.6 hPa Calm     75 % 0.0 mm 0.0 W/m2 CLR
20:57 6.2 °C 1.9 °C 1024.6 hPa Calm     74 % 0.0 mm 0.0 W/m2 CLR
21:02 6.3 °C 2.1 °C 1024.6 hPa Calm     74 % 0.0 mm 0.0 W/m2 CLR
21:07 6.3 °C 2.1 °C 1024.6 hPa Calm     74 % 0.0 mm 0.0 W/m2 CLR
21:12 6.4 °C 1.9 °C 1024.3 hPa Calm     73 % 0.0 mm 0.0 W/m2 CLR
21:17 6.6 °C 2.3 °C 1024.3 hPa ENE 5.6 km/h 5.6 km/h 74 % 0.0 mm 0.0 W/m2 CLR
21:22 7.2 °C 2.4 °C 1024.3 hPa ENE 9.3 km/h 9.3 km/h 72 % 0.0 mm 0.0 W/m2 CLR
21:32 7.5 °C 2.4 °C 1024.3 hPa Calm     70 % 0.0 mm 0.0 W/m2 CLR
21:37 7.3 °C 2.2 °C 1024.3 hPa ENE 5.6 km/h 5.6 km/h 70 % 0.0 mm 0.0 W/m2 CLR
21:42 7.1 °C 2.2 °C 1024.3 hPa ENE 1.9 km/h   71 % 0.0 mm 0.0 W/m2 CLR
21:47 7.1 °C 2.4 °C 1024.3 hPa ENE 18.5 km/h 18.5 km/h 72 % 0.0 mm 0.0 W/m2 CLR
21:52 7.5 °C 2.6 °C 1024.3 hPa ENE 18.5 km/h 18.5 km/h 71 % 0.0 mm 0.0 W/m2 CLR
21:57 7.6 °C 2.4 °C 1024.3 hPa ENE 16.7 km/h 16.7 km/h 70 % 0.0 mm 0.0 W/m2 CLR
22:02 7.6 °C 2.6 °C 1024.3 hPa ENE 6.4 km/h 6.4 km/h 71 % 0.0 mm 0.0 W/m2 CLR
22:07 7.5 °C 2.6 °C 1024.3 hPa ENE 7.4 km/h 7.4 km/h 71 % 0.0 mm 0.0 W/m2 CLR
22:13 7.3 °C 2.4 °C 1024.3 hPa ENE 5.6 km/h 5.6 km/h 71 % 0.0 mm 0.0 W/m2 CLR
22:18 7.1 °C 2.2 °C 1024.3 hPa ENE 3.7 km/h 3.7 km/h 71 % 0.0 mm 0.0 W/m2 CLR
22:23 6.9 °C 2.2 °C 1023.9 hPa Calm     72 % 0.0 mm 0.0 W/m2 CLR
22:28 6.7 °C 2.0 °C 1023.9 hPa Calm     72 % 0.0 mm 0.0 W/m2 CLR
22:33 6.4 °C 1.9 °C 1023.9 hPa Calm     73 % 0.0 mm 0.0 W/m2 CLR
22:38 6.3 °C 2.1 °C 1023.9 hPa Calm     74 % 0.0 mm 0.0 W/m2 CLR
22:43 6.2 °C 1.9 °C 1023.9 hPa Calm     74 % 0.0 mm 0.0 W/m2 CLR
22:48 6.0 °C 1.9 °C 1023.9 hPa Calm     75 % 0.0 mm 0.0 W/m2 CLR
22:53 5.9 °C 2.1 °C 1023.9 hPa Calm     76 % 0.0 mm 0.0 W/m2 CLR
22:58 5.8 °C 1.9 °C 1023.9 hPa ENE 3.7 km/h   76 % 0.0 mm 0.0 W/m2 CLR
23:03 5.8 °C 2.1 °C 1023.9 hPa ENE 11.1 km/h   77 % 0.0 mm 0.0 W/m2 CLR
23:08 5.9 °C 2.0 °C 1023.9 hPa Calm     76 % 0.0 mm 0.0 W/m2 CLR
23:13 5.8 °C 1.9 °C 1023.9 hPa Calm     76 % 0.0 mm 0.0 W/m2 CLR
23:23 5.7 °C 2.0 °C 1023.9 hPa Calm     77 % 0.0 mm 0.0 W/m2 CLR
23:28 5.6 °C 1.8 °C 1023.6 hPa Calm     77 % 0.0 mm 0.0 W/m2 CLR
23:33 5.4 °C 1.7 °C 1023.6 hPa Calm     77 % 0.0 mm 0.0 W/m2 CLR
23:38 5.4 °C 1.8 °C 1023.6 hPa Calm     78 % 0.0 mm 0.0 W/m2 CLR
23:43 5.4 °C 1.8 °C 1023.6 hPa Calm     78 % 0.0 mm 0.0 W/m2 CLR
23:48 5.4 °C 1.8 °C 1023.6 hPa Calm     78 % 0.0 mm 0.0 W/m2 CLR
23:53 5.4 °C 1.8 °C 1023.6 hPa Calm     78 % 0.0 mm 0.0 W/m2 CLR
Lo Temps de Massalio
Compliments of Weather Underground - 1.25 mb